createdAt,value
2018-12-07T00:05:13.609Z,11
2018-12-07T00:15:17.002Z,11.1
2018-12-07T00:25:20.414Z,11.2
2018-12-07T00:35:23.796Z,11
2018-12-07T00:45:27.226Z,11.1
2018-12-07T00:55:30.675Z,11.2
2018-12-07T01:05:34.077Z,11.1
2018-12-07T01:15:37.521Z,11
2018-12-07T01:25:40.965Z,11
2018-12-07T01:35:44.407Z,11.1
2018-12-07T01:45:47.858Z,11.1
2018-12-07T01:55:51.254Z,11.1
2018-12-07T02:05:54.677Z,11
2018-12-07T02:15:58.129Z,11.1
2018-12-07T02:26:01.629Z,11.2
2018-12-07T02:36:05.076Z,11.2
2018-12-07T02:46:08.499Z,11.2
2018-12-07T02:56:11.906Z,11.3
2018-12-07T03:06:15.445Z,11.3
2018-12-07T03:16:18.878Z,11.2
2018-12-07T03:26:22.299Z,11.3
2018-12-07T03:36:25.716Z,11.1
2018-12-07T03:46:29.145Z,11.2
2018-12-07T03:56:32.626Z,11
2018-12-07T04:06:36.052Z,11
2018-12-07T04:16:39.476Z,10.9
2018-12-07T04:26:42.882Z,11.1
2018-12-07T04:36:46.278Z,11
2018-12-07T04:46:49.705Z,11
2018-12-07T04:56:53.148Z,10.9
2018-12-07T05:06:56.627Z,10.9
2018-12-07T05:17:00.053Z,10.9
2018-12-07T05:27:03.500Z,11
2018-12-07T05:37:06.927Z,11
2018-12-07T05:47:10.338Z,11
2018-12-07T05:57:13.742Z,11
2018-12-07T06:07:17.143Z,10.9
2018-12-07T06:17:20.565Z,11
2018-12-07T06:27:23.992Z,10.9
2018-12-07T06:37:27.450Z,10.8
2018-12-07T06:47:30.859Z,10.9
2018-12-07T06:57:34.258Z,10.9
2018-12-07T07:07:37.668Z,10.8
2018-12-07T07:17:41.095Z,10.9
2018-12-07T07:27:44.513Z,10.9
2018-12-07T07:37:47.916Z,10.9
2018-12-07T07:47:51.363Z,11
2018-12-07T07:57:54.782Z,11.1
2018-12-07T08:07:58.222Z,11.1
2018-12-07T08:18:01.678Z,11
2018-12-07T08:28:05.097Z,11.1
2018-12-07T08:38:08.535Z,11
2018-12-07T08:48:11.965Z,11.1
2018-12-07T08:58:15.427Z,11.3
2018-12-07T09:08:18.840Z,11.3
2018-12-07T09:18:22.252Z,11.2
2018-12-07T09:28:25.681Z,11.2
2018-12-07T09:38:29.067Z,11.1
2018-12-07T09:48:32.504Z,11.2
2018-12-07T09:58:35.927Z,11.3
2018-12-07T10:08:39.344Z,11.2
2018-12-07T10:18:42.772Z,11.1
2018-12-07T10:28:46.194Z,11.2
2018-12-07T10:38:49.608Z,11.3
2018-12-07T10:48:53.039Z,11.5
2018-12-07T10:58:56.467Z,11.7
2018-12-07T11:08:59.906Z,11.7
2018-12-07T11:19:03.326Z,11.8
2018-12-07T11:29:06.779Z,11.9
2018-12-07T11:39:10.237Z,11.9
2018-12-07T11:49:13.693Z,12
2018-12-07T11:59:17.118Z,12.3
2018-12-07T12:09:20.550Z,12.1
2018-12-07T12:19:23.984Z,12.1
2018-12-07T12:29:27.475Z,12
2018-12-07T12:39:30.922Z,12
2018-12-07T12:49:34.326Z,11.9
2018-12-07T12:59:37.781Z,12
2018-12-07T13:09:41.197Z,12.1
2018-12-07T13:19:44.633Z,12
2018-12-07T13:29:48.035Z,12
2018-12-07T13:39:51.467Z,11.9
2018-12-07T13:49:56.237Z,11.8
2018-12-07T14:00:00.318Z,11.7
2018-12-07T14:10:03.939Z,11.8
2018-12-07T14:20:07.783Z,11.9
2018-12-07T14:30:11.370Z,11.9
2018-12-07T14:40:15.569Z,11.9
2018-12-07T14:50:20.223Z,11.9
2018-12-07T15:00:23.957Z,11.9
2018-12-07T15:10:28.015Z,11.8
2018-12-07T15:20:31.789Z,11.7
2018-12-07T15:30:35.417Z,11.7
2018-12-07T15:40:39.404Z,11.8
2018-12-07T15:50:43.617Z,11.7
2018-12-07T16:00:47.452Z,11.7
2018-12-07T16:10:52.916Z,11.7
2018-12-07T16:20:57.351Z,11.7
2018-12-07T16:31:01.595Z,11.7
2018-12-07T16:41:05.300Z,11.8
2018-12-07T16:51:09.148Z,11.7
2018-12-07T17:01:12.999Z,11.8
2018-12-07T17:11:16.774Z,11.9
2018-12-07T17:21:21.317Z,11.8
2018-12-07T17:31:25.083Z,11.6
2018-12-07T17:41:28.884Z,11.6
2018-12-07T17:51:32.911Z,11.4
2018-12-07T18:01:36.953Z,11.3
2018-12-07T18:11:40.456Z,11.2
2018-12-07T18:21:44.326Z,11.2
2018-12-07T18:31:47.879Z,11.1
2018-12-07T18:41:51.974Z,11
2018-12-07T18:51:55.641Z,11.1
2018-12-07T19:01:59.098Z,11
2018-12-07T19:12:03.289Z,10.7
2018-12-07T19:22:07.145Z,10.5
2018-12-07T19:32:11.057Z,10.4
2018-12-07T19:42:15.396Z,10.4
2018-12-07T19:52:19.355Z,10.3
2018-12-07T20:02:23.180Z,10.4
2018-12-07T20:12:26.811Z,10.4
2018-12-07T20:22:31.170Z,10.4
2018-12-07T20:32:35.257Z,10.2
2018-12-07T20:42:38.948Z,9.8
2018-12-07T20:52:42.642Z,9.7
2018-12-07T21:02:46.297Z,9.8
2018-12-07T21:12:50.106Z,9.7
2018-12-07T21:22:53.780Z,9.7
2018-12-07T21:32:58.053Z,9.6
2018-12-07T21:43:02.182Z,9.7
2018-12-07T21:53:06.496Z,9.9
2018-12-07T22:03:10.511Z,9.9
2018-12-07T22:13:14.621Z,9.9
2018-12-07T22:23:18.651Z,9.8
2018-12-07T22:33:22.984Z,9.6
2018-12-07T22:43:26.849Z,9.6
2018-12-07T22:53:30.251Z,9.6
2018-12-07T23:03:33.676Z,9.8
2018-12-07T23:13:37.049Z,9.4
2018-12-07T23:23:40.475Z,9.4
2018-12-07T23:33:43.884Z,9.2
2018-12-07T23:43:47.279Z,8.9
2018-12-07T23:53:50.670Z,8.6
